createdAt,value
2023-05-01T00:01:34.053Z,3.65
2023-05-01T00:04:07.419Z,5.15
2023-05-01T00:06:57.841Z,3.55
2023-05-01T00:09:36.810Z,4.65
2023-05-01T00:12:06.525Z,6.45
2023-05-01T00:14:56.010Z,4.70
2023-05-01T00:17:25.876Z,4.00
2023-05-01T00:19:55.059Z,5.18
2023-05-01T00:22:27.598Z,7.10
2023-05-01T00:24:57.052Z,3.53
2023-05-01T00:27:32.693Z,5.13
2023-05-01T00:30:01.827Z,5.60
2023-05-01T00:32:35.272Z,4.15
2023-05-01T00:35:24.140Z,4.70
2023-05-01T00:37:55.867Z,3.90
2023-05-01T00:40:25.465Z,5.03
2023-05-01T00:42:53.950Z,6.03
2023-05-01T00:45:25.454Z,4.10
2023-05-01T00:47:53.837Z,3.80
2023-05-01T00:50:26.865Z,4.05
2023-05-01T00:52:55.642Z,5.13
2023-05-01T00:55:25.181Z,6.00
2023-05-01T00:57:55.210Z,4.18
2023-05-01T01:00:26.453Z,4.18
2023-05-01T01:02:56.163Z,7.20
2023-05-01T01:05:48.397Z,6.07
2023-05-01T01:08:27.766Z,5.72
2023-05-01T01:11:11.728Z,4.13
2023-05-01T01:13:47.381Z,3.77
2023-05-01T01:16:25.999Z,5.87
2023-05-01T01:19:02.153Z,6.05
2023-05-01T01:21:39.856Z,5.35
2023-05-01T01:24:38.236Z,4.33
2023-05-01T01:27:43.577Z,4.00
2023-05-01T01:30:49.243Z,4.50
2023-05-01T01:33:50.093Z,4.60
2023-05-01T01:36:23.750Z,4.77
2023-05-01T01:39:02.558Z,4.87
2023-05-01T01:41:53.713Z,4.63
2023-05-01T01:44:26.818Z,4.57
2023-05-01T01:47:04.900Z,5.03
2023-05-01T01:49:35.998Z,6.30
2023-05-01T01:52:07.963Z,6.93
2023-05-01T01:54:41.934Z,7.70
2023-05-01T01:57:12.689Z,5.50
2023-05-01T01:59:42.698Z,4.50
2023-05-01T02:02:16.168Z,5.40
2023-05-01T02:04:48.014Z,5.17
2023-05-01T02:07:23.292Z,5.53
2023-05-01T02:10:15.151Z,6.33
2023-05-01T02:12:48.628Z,9.27
2023-05-01T02:15:20.328Z,5.27
2023-05-01T02:17:51.417Z,5.03
2023-05-01T02:20:58.071Z,5.57
2023-05-01T02:24:17.333Z,7.30
2023-05-01T02:27:33.408Z,7.63
2023-05-01T02:30:23.567Z,6.97
2023-05-01T02:32:53.847Z,5.40
2023-05-01T02:35:22.664Z,5.47
2023-05-01T02:37:53.672Z,5.53
2023-05-01T02:40:25.336Z,8.52
2023-05-01T02:43:01.180Z,5.33
2023-05-01T02:45:31.096Z,5.20
2023-05-01T02:48:02.525Z,3.77
2023-05-01T02:50:33.259Z,9.13
2023-05-01T02:53:03.821Z,4.83
2023-05-01T02:55:35.155Z,7.23
2023-05-01T02:58:25.850Z,6.07
2023-05-01T03:00:59.640Z,5.20
2023-05-01T03:03:31.387Z,3.70
2023-05-01T03:06:00.609Z,5.90
2023-05-01T03:08:48.893Z,4.15
2023-05-01T03:11:43.329Z,5.67
2023-05-01T03:14:32.856Z,5.43
2023-05-01T03:17:01.940Z,5.27
2023-05-01T03:19:52.539Z,5.18
2023-05-01T03:22:20.963Z,5.23
2023-05-01T03:24:50.891Z,6.20
2023-05-01T03:27:21.171Z,5.93
2023-05-01T03:29:50.056Z,6.33
2023-05-01T03:32:23.268Z,3.93
2023-05-01T03:34:52.211Z,5.77
2023-05-01T03:37:20.903Z,6.80
2023-05-01T03:40:31.266Z,4.97
2023-05-01T03:43:21.622Z,5.20
2023-05-01T03:45:51.810Z,5.27
2023-05-01T03:48:22.780Z,5.17
2023-05-01T03:50:54.674Z,5.27
2023-05-01T03:53:23.497Z,5.00
2023-05-01T03:56:12.981Z,8.05
2023-05-01T03:58:42.886Z,6.27
2023-05-01T04:01:14.407Z,5.33
2023-05-01T04:03:46.185Z,5.38
2023-05-01T04:06:20.002Z,7.07
2023-05-01T04:08:48.544Z,6.68
2023-05-01T04:11:19.124Z,4.97
2023-05-01T04:13:49.620Z,5.73
2023-05-01T04:16:18.485Z,5.30
2023-05-01T04:18:48.946Z,7.13
2023-05-01T04:21:18.997Z,4.80
2023-05-01T04:23:48.410Z,5.50
2023-05-01T04:26:16.787Z,5.50
2023-05-01T04:29:09.098Z,5.67
2023-05-01T04:31:58.753Z,5.10
2023-05-01T04:34:31.429Z,5.10
2023-05-01T04:37:04.354Z,6.97
2023-05-01T04:39:52.626Z,7.53
2023-05-01T04:42:22.507Z,6.70
2023-05-01T04:44:51.913Z,5.77
2023-05-01T04:47:30.277Z,5.63
2023-05-01T04:50:00.558Z,8.80
2023-05-01T04:55:12.839Z,6.00
2023-05-01T04:58:05.717Z,7.50
2023-05-01T05:00:58.649Z,4.77
2023-05-01T05:03:27.638Z,6.00
2023-05-01T05:06:00.355Z,9.77
2023-05-01T05:08:34.441Z,7.40
2023-05-01T05:11:11.596Z,6.53
2023-05-01T05:14:00.635Z,5.37
2023-05-01T05:16:30.154Z,6.30
2023-05-01T05:18:58.553Z,6.77
2023-05-01T05:21:26.513Z,4.97
2023-05-01T05:23:54.520Z,7.87
2023-05-01T05:26:22.575Z,7.57
2023-05-01T05:28:51.826Z,6.80
2023-05-01T05:31:20.136Z,7.57
2023-05-01T05:33:49.805Z,6.07
2023-05-01T05:36:18.247Z,6.43
2023-05-01T05:38:46.528Z,7.07
2023-05-01T05:41:14.866Z,7.13
2023-05-01T05:43:43.279Z,8.90
2023-05-01T05:46:11.541Z,4.87
2023-05-01T05:48:39.786Z,5.60
2023-05-01T05:51:09.212Z,6.83
2023-05-01T05:53:37.169Z,5.63
2023-05-01T05:56:05.735Z,6.53
2023-05-01T05:58:33.883Z,9.33
2023-05-01T06:01:02.197Z,9.00
2023-05-01T06:03:30.293Z,8.27
2023-05-01T06:05:58.679Z,10.00
2023-05-01T06:08:28.302Z,7.40
2023-05-01T06:10:56.528Z,9.30
2023-05-01T06:13:24.527Z,7.20
2023-05-01T06:15:52.730Z,9.60
2023-05-01T06:18:21.102Z,6.37
2023-05-01T06:20:49.315Z,9.03
2023-05-01T06:23:17.317Z,9.37
2023-05-01T06:25:48.760Z,6.97
2023-05-01T06:28:17.010Z,8.73
2023-05-01T06:30:45.192Z,7.90
2023-05-01T06:33:13.249Z,9.27
2023-05-01T06:35:41.443Z,10.57
2023-05-01T06:38:09.801Z,7.93
2023-05-01T06:40:38.219Z,8.83
2023-05-01T06:43:08.058Z,9.50
2023-05-01T06:45:36.256Z,7.95
2023-05-01T06:48:04.692Z,6.60
2023-05-01T06:50:32.797Z,6.78
2023-05-01T06:53:02.735Z,10.77
2023-05-01T06:55:33.295Z,8.77
2023-05-01T06:58:04.873Z,7.97
2023-05-01T07:00:41.856Z,5.33
2023-05-01T07:03:10.106Z,9.03
2023-05-01T07:05:40.230Z,6.97
2023-05-01T07:08:09.620Z,10.43
2023-05-01T07:10:39.278Z,7.13
2023-05-01T07:13:09.397Z,9.80
2023-05-01T07:15:37.533Z,10.87
2023-05-01T07:18:07.093Z,8.57
2023-05-01T07:20:35.637Z,10.20
2023-05-01T07:23:05.946Z,7.90
2023-05-01T07:25:35.177Z,7.20
2023-05-01T07:28:04.603Z,7.17
2023-05-01T07:30:33.400Z,7.67
2023-05-01T07:33:01.687Z,7.73
2023-05-01T07:35:31.058Z,9.27
2023-05-01T07:37:58.986Z,8.07
2023-05-01T07:40:26.957Z,7.32
2023-05-01T07:42:54.954Z,10.20
2023-05-01T07:45:22.972Z,5.93
2023-05-01T07:47:52.405Z,6.13
2023-05-01T07:50:20.904Z,8.05
2023-05-01T07:52:50.288Z,6.87
2023-05-01T07:55:19.225Z,8.02
2023-05-01T07:57:47.289Z,8.20
2023-05-01T08:00:16.606Z,6.97
2023-05-01T08:02:44.993Z,8.43
2023-05-01T08:05:13.072Z,13.80
2023-05-01T08:07:40.998Z,9.43
2023-05-01T08:10:11.573Z,6.38
2023-05-01T08:12:39.569Z,10.73
2023-05-01T08:15:09.063Z,7.13
2023-05-01T08:17:37.656Z,9.50
2023-05-01T08:20:06.720Z,7.45
2023-05-01T08:22:37.500Z,7.88
2023-05-01T08:25:06.683Z,7.97
2023-05-01T08:27:36.419Z,9.48
2023-05-01T08:30:04.984Z,9.65
2023-05-01T08:32:33.604Z,8.07
2023-05-01T08:35:01.970Z,10.07
2023-05-01T08:37:29.998Z,7.43
2023-05-01T08:39:58.288Z,8.07
2023-05-01T08:42:27.751Z,8.50
2023-05-01T08:44:59.875Z,7.70
2023-05-01T08:47:29.546Z,11.43
2023-05-01T08:49:59.124Z,12.60
2023-05-01T08:52:30.253Z,9.03
2023-05-01T08:55:01.463Z,10.40
2023-05-01T08:57:32.645Z,10.33
2023-05-01T09:00:04.365Z,9.40
2023-05-01T09:02:35.645Z,10.90
2023-05-01T09:05:04.936Z,10.43
2023-05-01T09:07:33.070Z,13.93
2023-05-01T09:10:01.429Z,15.02
2023-05-01T09:12:30.213Z,11.68
2023-05-01T09:14:58.603Z,12.88
2023-05-01T09:17:29.061Z,13.70
2023-05-01T09:19:57.382Z,13.43
2023-05-01T09:22:25.887Z,14.95
2023-05-01T09:24:53.898Z,17.33
2023-05-01T09:27:22.155Z,14.57
2023-05-01T09:29:50.385Z,17.13
2023-05-01T09:32:20.804Z,14.50
2023-05-01T09:34:51.409Z,12.70
2023-05-01T09:37:30.953Z,16.23
2023-05-01T09:40:07.868Z,14.97
2023-05-01T09:42:37.483Z,17.90
2023-05-01T09:45:07.510Z,18.13
2023-05-01T09:47:36.308Z,17.10
2023-05-01T09:50:06.832Z,15.80
2023-05-01T09:52:34.828Z,17.13
2023-05-01T09:55:16.789Z,11.27
2023-05-01T09:57:46.649Z,13.43
2023-05-01T10:00:15.704Z,13.00
2023-05-01T10:02:47.956Z,10.80
2023-05-01T10:05:17.858Z,10.85
2023-05-01T10:07:59.752Z,15.15
2023-05-01T10:10:28.297Z,13.90
2023-05-01T10:12:56.626Z,16.83
2023-05-01T10:15:37.394Z,12.93
2023-05-01T10:18:05.834Z,15.63
2023-05-01T10:20:35.260Z,15.03
2023-05-01T10:23:03.757Z,15.07
2023-05-01T10:25:33.649Z,16.97
2023-05-01T10:28:04.944Z,12.03
2023-05-01T10:30:33.192Z,12.67
2023-05-01T10:33:01.269Z,12.50
2023-05-01T10:35:34.067Z,12.17
2023-05-01T10:38:06.077Z,11.67
2023-05-01T10:40:48.753Z,13.25
2023-05-01T10:43:21.181Z,9.88
2023-05-01T10:45:50.124Z,10.63
2023-05-01T10:48:57.836Z,12.73
2023-05-01T10:51:28.405Z,10.63
2023-05-01T10:54:26.667Z,12.93
2023-05-01T10:56:56.057Z,11.90
2023-05-01T10:59:24.517Z,10.35
2023-05-01T11:01:54.370Z,11.60
2023-05-01T11:04:53.958Z,11.67
2023-05-01T11:07:23.942Z,8.93
2023-05-01T11:09:55.963Z,12.63
2023-05-01T11:12:52.519Z,11.27
2023-05-01T11:15:32.614Z,11.97
2023-05-01T11:18:06.630Z,13.60
2023-05-01T11:21:02.687Z,9.95
2023-05-01T11:23:30.760Z,11.50
2023-05-01T11:26:06.543Z,8.93
2023-05-01T11:28:35.364Z,10.18
2023-05-01T11:31:23.752Z,11.45
2023-05-01T11:33:52.108Z,9.88
2023-05-01T11:36:21.111Z,9.85
2023-05-01T11:38:52.699Z,10.13
2023-05-01T11:41:23.409Z,9.07
2023-05-01T11:43:53.092Z,8.57
2023-05-01T11:46:28.059Z,8.82
2023-05-01T11:48:56.536Z,11.60
2023-05-01T11:51:25.291Z,12.40
2023-05-01T11:54:03.055Z,10.35
2023-05-01T11:56:33.977Z,8.63
2023-05-01T11:59:11.406Z,10.95
2023-05-01T12:01:41.344Z,9.88
2023-05-01T12:04:09.854Z,9.77
2023-05-01T12:06:40.624Z,8.25
2023-05-01T12:09:09.485Z,12.73
2023-05-01T12:11:40.321Z,12.98
2023-05-01T12:14:09.663Z,7.70
2023-05-01T12:16:40.346Z,12.23
2023-05-01T12:19:08.657Z,8.88
2023-05-01T12:21:38.144Z,8.95
2023-05-01T12:24:10.507Z,10.70
2023-05-01T12:26:40.637Z,10.63
2023-05-01T12:29:15.079Z,8.73
2023-05-01T12:31:49.315Z,8.20
2023-05-01T12:34:17.671Z,7.45
2023-05-01T12:36:55.135Z,9.27
2023-05-01T12:39:24.314Z,6.93
2023-05-01T12:41:54.784Z,7.70
2023-05-01T12:44:24.430Z,5.75
2023-05-01T12:46:57.869Z,9.35
2023-05-01T12:49:26.664Z,15.93
2023-05-01T12:51:56.010Z,8.93
2023-05-01T12:54:25.424Z,11.48
2023-05-01T12:56:55.021Z,7.43
2023-05-01T12:59:24.752Z,8.00
2023-05-01T13:02:00.418Z,7.88
2023-05-01T13:04:29.088Z,6.70
2023-05-01T13:06:58.264Z,11.20
2023-05-01T13:09:28.448Z,7.80
2023-05-01T13:12:05.012Z,7.32
2023-05-01T13:14:37.999Z,8.00
2023-05-01T13:17:09.491Z,6.68
2023-05-01T13:19:38.333Z,5.07
2023-05-01T13:22:06.950Z,7.82
2023-05-01T13:24:39.524Z,8.65
2023-05-01T13:27:09.689Z,6.47
2023-05-01T13:29:39.065Z,7.25
2023-05-01T13:32:11.218Z,6.72
2023-05-01T13:34:43.863Z,7.22
2023-05-01T13:37:13.848Z,5.97
2023-05-01T13:39:43.008Z,6.28
2023-05-01T13:42:19.409Z,9.38
2023-05-01T13:45:25.877Z,9.52
2023-05-01T13:47:55.241Z,8.48
2023-05-01T13:50:23.521Z,6.60
2023-05-01T13:52:51.619Z,7.93
2023-05-01T13:55:21.370Z,6.90
2023-05-01T13:57:50.689Z,8.77
2023-05-01T14:00:19.731Z,7.00
2023-05-01T14:02:49.789Z,6.43
2023-05-01T14:05:28.455Z,7.90
2023-05-01T14:07:58.332Z,6.25
2023-05-01T14:10:29.537Z,9.55
2023-05-01T14:13:00.040Z,6.82
2023-05-01T14:15:28.717Z,6.50
2023-05-01T14:17:56.890Z,7.30
2023-05-01T14:20:26.386Z,8.52
2023-05-01T14:22:54.345Z,7.00
2023-05-01T14:25:25.850Z,9.48
2023-05-01T14:27:55.409Z,8.25
2023-05-01T14:30:33.304Z,8.63
2023-05-01T14:33:03.857Z,8.20
2023-05-01T14:35:32.219Z,10.00
2023-05-01T14:38:08.941Z,9.05
2023-05-01T14:40:37.046Z,10.43
2023-05-01T14:43:05.091Z,10.68
2023-05-01T14:45:37.957Z,11.90
2023-05-01T14:48:07.166Z,12.20
2023-05-01T14:50:35.197Z,12.70
2023-05-01T14:53:03.881Z,12.07
2023-05-01T14:55:34.718Z,10.48
2023-05-01T14:58:03.584Z,13.27
2023-05-01T15:00:31.645Z,12.35
2023-05-01T15:03:01.555Z,11.45
2023-05-01T15:05:30.056Z,15.48
2023-05-01T15:08:00.515Z,14.13
2023-05-01T15:10:31.756Z,11.45
2023-05-01T15:12:59.878Z,14.38
2023-05-01T15:15:28.052Z,10.35
2023-05-01T15:17:56.030Z,10.80
2023-05-01T15:20:25.753Z,11.38
2023-05-01T15:22:53.942Z,12.23
2023-05-01T15:25:21.927Z,10.40
2023-05-01T15:27:50.378Z,14.23
2023-05-01T15:30:18.342Z,13.48
2023-05-01T15:32:46.373Z,12.77
2023-05-01T15:35:14.806Z,15.07
2023-05-01T15:37:44.685Z,14.68
2023-05-01T15:40:13.022Z,14.38
2023-05-01T15:42:40.962Z,15.73
2023-05-01T15:45:10.462Z,13.90
2023-05-01T15:47:38.527Z,14.88
2023-05-01T15:50:10.817Z,14.55
2023-05-01T15:52:39.229Z,14.70
2023-05-01T15:55:09.602Z,15.27
2023-05-01T15:57:37.690Z,15.10
2023-05-01T16:00:08.433Z,14.57
2023-05-01T16:02:36.539Z,13.75
2023-05-01T16:05:05.045Z,16.52
2023-05-01T16:07:34.366Z,16.90
2023-05-01T16:10:02.631Z,18.20
2023-05-01T16:12:32.706Z,18.27
2023-05-01T16:15:03.405Z,17.05
2023-05-01T16:17:33.127Z,16.02
2023-05-01T16:20:02.902Z,16.55
2023-05-01T16:22:33.449Z,15.70
2023-05-01T16:25:01.611Z,15.82
2023-05-01T16:27:31.018Z,17.67
2023-05-01T16:29:59.606Z,20.92
2023-05-01T16:32:27.976Z,16.77
2023-05-01T16:34:56.026Z,17.42
2023-05-01T16:37:26.774Z,18.38
2023-05-01T16:39:54.850Z,17.20
2023-05-01T16:42:22.980Z,18.33
2023-05-01T16:44:52.456Z,23.48
2023-05-01T16:47:22.598Z,19.02
2023-05-01T16:49:52.667Z,20.60
2023-05-01T16:52:20.804Z,22.05
2023-05-01T16:54:48.777Z,22.67
2023-05-01T16:57:17.296Z,22.02
2023-05-01T16:59:45.380Z,25.48
2023-05-01T17:02:14.730Z,24.13
2023-05-01T17:04:42.943Z,28.38
2023-05-01T17:07:11.108Z,23.20
2023-05-01T17:09:39.379Z,21.75
2023-05-01T17:12:07.654Z,24.63
2023-05-01T17:14:38.635Z,24.13
2023-05-01T17:17:09.378Z,22.30
2023-05-01T17:19:39.592Z,23.52
2023-05-01T17:22:07.621Z,27.48
2023-05-01T17:24:37.104Z,25.27
2023-05-01T17:27:05.712Z,25.80
2023-05-01T17:29:33.732Z,29.20
2023-05-01T17:32:01.867Z,28.60
2023-05-01T17:34:29.929Z,32.05
2023-05-01T17:36:59.911Z,30.03
2023-05-01T17:39:28.158Z,24.90
2023-05-01T17:41:56.526Z,27.58
2023-05-01T17:44:24.528Z,27.95
2023-05-01T17:46:52.552Z,27.38
2023-05-01T17:49:20.808Z,24.92
2023-05-01T17:51:49.021Z,24.23
2023-05-01T17:54:19.230Z,25.70
2023-05-01T17:56:47.245Z,24.38
2023-05-01T17:59:15.370Z,25.65
2023-05-01T18:01:43.407Z,25.70
2023-05-01T18:04:11.690Z,28.52
2023-05-01T18:06:39.912Z,29.10
2023-05-01T18:09:08.937Z,29.77
2023-05-01T18:11:38.271Z,28.73
2023-05-01T18:14:06.310Z,27.88
2023-05-01T18:16:34.470Z,28.30
2023-05-01T18:19:02.491Z,24.65
2023-05-01T18:21:30.553Z,31.58
2023-05-01T18:23:58.485Z,26.83
2023-05-01T18:26:28.010Z,26.40
2023-05-01T18:28:57.330Z,28.42
2023-05-01T18:31:25.322Z,29.67
2023-05-01T18:33:53.442Z,31.20
2023-05-01T18:36:21.472Z,33.72
2023-05-01T18:38:49.479Z,31.83
2023-05-01T18:41:19.677Z,32.78
2023-05-01T18:43:47.659Z,34.13
2023-05-01T18:46:17.184Z,34.78
2023-05-01T18:48:45.316Z,35.17
2023-05-01T18:51:13.970Z,38.45
2023-05-01T18:53:41.970Z,36.15
2023-05-01T18:56:10.535Z,38.33
2023-05-01T18:58:39.782Z,38.13
2023-05-01T19:01:07.913Z,39.22
2023-05-01T19:03:37.353Z,41.47
2023-05-01T19:06:05.375Z,41.13
2023-05-01T19:08:33.448Z,42.95
2023-05-01T19:11:01.793Z,39.88
2023-05-01T19:13:29.770Z,37.92
2023-05-01T19:15:57.799Z,41.15
2023-05-01T19:18:25.909Z,39.15
2023-05-01T19:20:55.330Z,35.33
2023-05-01T19:23:23.796Z,36.92
2023-05-01T19:25:51.801Z,35.43
2023-05-01T19:28:19.872Z,34.47
2023-05-01T19:30:47.922Z,36.35
2023-05-01T19:33:16.294Z,31.70
2023-05-01T19:35:44.831Z,33.05
2023-05-01T19:38:14.442Z,32.53
2023-05-01T19:40:44.994Z,32.17
2023-05-01T19:43:14.162Z,30.00
2023-05-01T19:45:43.617Z,26.93
2023-05-01T19:48:11.707Z,31.70
2023-05-01T19:50:39.714Z,32.30
2023-05-01T19:53:07.793Z,30.50
2023-05-01T19:55:37.218Z,32.00
2023-05-01T19:58:05.835Z,31.02
2023-05-01T20:00:33.884Z,35.53
2023-05-01T20:03:01.998Z,30.57
2023-05-01T20:05:32.347Z,34.90
2023-05-01T20:08:01.999Z,31.30
2023-05-01T20:10:30.415Z,31.87
2023-05-01T20:13:00.022Z,31.00
2023-05-01T20:15:28.263Z,26.30
2023-05-01T20:17:56.438Z,27.20
2023-05-01T20:20:24.565Z,28.10
2023-05-01T20:22:53.018Z,28.90
2023-05-01T20:25:21.035Z,29.55
2023-05-01T20:27:49.007Z,30.63
2023-05-01T20:30:18.508Z,28.58
2023-05-01T20:32:47.769Z,27.70
2023-05-01T20:35:16.161Z,32.50
2023-05-01T20:37:44.225Z,28.87
2023-05-01T20:40:13.542Z,28.37
2023-05-01T20:42:42.970Z,27.13
2023-05-01T20:45:11.726Z,31.60
2023-05-01T20:47:41.106Z,31.27
2023-05-01T20:50:09.720Z,25.93
2023-05-01T20:52:38.294Z,24.90
2023-05-01T20:55:07.279Z,22.73
2023-05-01T20:57:36.882Z,18.27
2023-05-01T21:00:05.853Z,19.35
2023-05-01T21:02:33.979Z,18.97
2023-05-01T21:05:03.938Z,16.58
2023-05-01T21:07:31.915Z,13.10
2023-05-01T21:10:00.100Z,15.32
2023-05-01T21:12:29.925Z,18.67
2023-05-01T21:14:58.721Z,18.90
2023-05-01T21:17:27.874Z,18.40
2023-05-01T21:19:55.963Z,14.27
2023-05-01T21:22:25.868Z,14.23
2023-05-01T21:24:55.418Z,18.57
2023-05-01T21:27:24.227Z,15.40
2023-05-01T21:29:56.514Z,16.43
2023-05-01T21:32:30.556Z,16.77
2023-05-01T21:34:58.726Z,17.63
2023-05-01T21:37:29.081Z,16.77
2023-05-01T21:40:00.581Z,18.20
2023-05-01T21:42:36.119Z,18.27
2023-05-01T21:45:07.867Z,17.70
2023-05-01T21:47:39.652Z,18.07
2023-05-01T21:50:08.850Z,18.57
2023-05-01T21:52:39.080Z,18.03
2023-05-01T21:55:09.417Z,18.73
2023-05-01T21:57:38.551Z,17.67
2023-05-01T22:00:09.391Z,18.30
2023-05-01T22:02:45.213Z,18.30
2023-05-01T22:05:15.155Z,17.87
2023-05-01T22:07:46.084Z,16.93
2023-05-01T22:10:15.717Z,18.70
2023-05-01T22:12:48.856Z,13.43
2023-05-01T22:15:17.549Z,13.47
2023-05-01T22:17:46.540Z,15.87
2023-05-01T22:20:14.736Z,16.60
2023-05-01T22:22:44.413Z,14.10
2023-05-01T22:25:13.439Z,17.27
2023-05-01T22:27:41.852Z,14.80
2023-05-01T22:30:11.133Z,15.13
2023-05-01T22:32:39.470Z,14.05
2023-05-01T22:35:08.850Z,15.43
2023-05-01T22:37:36.849Z,14.17
2023-05-01T22:40:07.749Z,16.47
2023-05-01T22:42:36.076Z,13.83
2023-05-01T22:45:04.380Z,13.23
2023-05-01T22:47:32.412Z,11.47
2023-05-01T22:50:01.466Z,11.60
2023-05-01T22:52:29.867Z,11.77
2023-05-01T22:54:57.819Z,11.93
2023-05-01T22:57:27.195Z,9.63
2023-05-01T22:59:55.633Z,9.77
2023-05-01T23:02:23.841Z,11.60
2023-05-01T23:04:52.230Z,11.00
2023-05-01T23:07:20.700Z,14.53
2023-05-01T23:09:48.900Z,10.60
2023-05-01T23:12:22.628Z,11.13
2023-05-01T23:14:52.397Z,11.67
2023-05-01T23:17:21.209Z,16.80
2023-05-01T23:19:49.394Z,12.83
2023-05-01T23:22:18.095Z,15.43
2023-05-01T23:24:48.689Z,12.50
2023-05-01T23:27:18.121Z,14.60
2023-05-01T23:29:56.472Z,13.27
2023-05-01T23:32:27.755Z,14.73
2023-05-01T23:34:56.869Z,14.47
2023-05-01T23:37:25.052Z,15.57
2023-05-01T23:39:53.569Z,14.33
2023-05-01T23:42:22.317Z,14.63
2023-05-01T23:44:50.422Z,14.93
2023-05-01T23:47:20.631Z,17.77
2023-05-01T23:49:49.185Z,17.33
2023-05-01T23:52:17.497Z,17.90
2023-05-01T23:54:45.528Z,14.23
2023-05-01T23:57:13.530Z,18.57
2023-05-01T23:59:41.737Z,15.00
